createdAt,value
2018-08-20T00:01:27.825Z,101015.22
2018-08-20T00:04:01.608Z,101023.23
2018-08-20T00:06:49.078Z,101018.83
2018-08-20T00:09:20.733Z,101022.16
2018-08-20T00:11:51.245Z,101017.24
2018-08-20T00:14:22.744Z,101020.45
2018-08-20T00:16:53.149Z,101025.49
2018-08-20T00:19:23.642Z,101026.83
2018-08-20T00:21:54.121Z,101021.56
2018-08-20T00:24:24.600Z,101023.47
2018-08-20T00:26:55.884Z,101022.03
2018-08-20T00:29:26.481Z,101025.14
2018-08-20T00:31:56.830Z,101022.63
2018-08-20T00:34:27.163Z,101026.45
2018-08-20T00:36:57.547Z,101019.50
2018-08-20T00:39:27.909Z,101020.66
2018-08-20T00:41:58.426Z,101024.03
2018-08-20T00:44:28.987Z,101017.44
2018-08-20T00:46:59.593Z,101014.09
2018-08-20T00:49:29.919Z,101014.20
2018-08-20T00:52:00.272Z,101015.63
2018-08-20T00:54:30.667Z,101012.73
2018-08-20T00:57:01.168Z,101009.27
2018-08-20T00:59:31.696Z,101012.61
2018-08-20T01:02:02.292Z,101011.76
2018-08-20T01:04:32.521Z,101018.67
2018-08-20T01:07:03.112Z,101010.98
2018-08-20T01:09:33.741Z,101014.34
2018-08-20T01:12:04.343Z,101009.54
2018-08-20T01:14:34.685Z,101006.52
2018-08-20T01:17:05.300Z,101010.47
2018-08-20T01:19:36.715Z,101007.50
2018-08-20T01:22:07.169Z,101006.39
2018-08-20T01:24:37.618Z,101004.45
2018-08-20T01:27:08.336Z,101010.73
2018-08-20T01:29:38.764Z,100998.52
2018-08-20T01:32:09.267Z,101003.58
2018-08-20T01:34:39.539Z,101006.84
2018-08-20T01:37:10.091Z,101003.40
2018-08-20T01:39:40.450Z,100999.91
2018-08-20T01:42:10.876Z,100997.80
2018-08-20T01:44:42.081Z,101003.34
2018-08-20T01:47:12.812Z,100992.85
2018-08-20T01:49:43.142Z,100994.77
2018-08-20T01:52:13.722Z,100990.98
2018-08-20T01:54:44.199Z,100998.20
2018-08-20T01:57:14.559Z,100999.92
2018-08-20T01:59:44.954Z,100992.75
2018-08-20T02:02:15.468Z,100992.39
2018-08-20T02:04:45.827Z,100986.52
2018-08-20T02:07:16.483Z,100984.89
2018-08-20T02:09:47.160Z,100991.77
2018-08-20T02:12:17.859Z,100984.48
2018-08-20T02:14:48.367Z,100983.25
2018-08-20T02:17:18.920Z,100981.11
2018-08-20T02:19:49.636Z,100980.95
2018-08-20T02:22:20.267Z,100973.48
2018-08-20T02:24:50.844Z,100973.68
2018-08-20T02:27:21.135Z,100972.45
2018-08-20T02:29:51.356Z,100972.75
2018-08-20T02:32:22.659Z,100967.53
2018-08-20T02:34:53.106Z,100964.28
2018-08-20T02:37:24.915Z,100968.16
2018-08-20T02:39:55.424Z,100964.50
2018-08-20T02:42:25.899Z,100962.91
2018-08-20T02:44:56.517Z,100955.70
2018-08-20T02:47:26.798Z,100953.43
2018-08-20T02:49:58.064Z,100946.06
2018-08-20T02:52:28.656Z,100951.09
2018-08-20T02:54:59.245Z,100945.83
2018-08-20T02:57:29.667Z,100946.84
2018-08-20T03:00:00.109Z,100947.00
2018-08-20T03:02:30.625Z,100944.37
2018-08-20T03:05:01.085Z,100945.30
2018-08-20T03:07:31.642Z,100944.37
2018-08-20T03:10:02.256Z,100935.30
2018-08-20T03:12:32.388Z,100938.64
2018-08-20T03:15:02.900Z,100934.69
2018-08-20T03:17:36.869Z,100934.05
2018-08-20T03:20:12.800Z,100927.52
2018-08-20T03:22:43.233Z,100928.70
2018-08-20T03:25:13.696Z,100938.64
2018-08-20T03:27:44.302Z,100936.20
2018-08-20T03:30:14.894Z,100934.03
2018-08-20T03:32:45.895Z,100935.97
2018-08-20T03:35:16.455Z,100936.13
2018-08-20T03:37:47.035Z,100945.97
2018-08-20T03:40:18.362Z,100952.47
2018-08-20T03:42:48.751Z,100951.66
2018-08-20T03:45:19.380Z,100949.40
2018-08-20T03:47:49.899Z,100947.53
2018-08-20T03:50:20.492Z,100949.95
2018-08-20T03:52:51.224Z,100956.30
2018-08-20T03:55:21.695Z,100961.20
2018-08-20T03:57:53.043Z,100957.75
2018-08-20T04:00:24.990Z,100966.23
2018-08-20T04:02:55.648Z,100962.66
2018-08-20T04:05:26.060Z,100962.14
2018-08-20T04:07:56.385Z,100965.52
2018-08-20T04:10:26.796Z,100966.67
2018-08-20T04:12:57.304Z,100965.05
2018-08-20T04:15:27.654Z,100967.25
2018-08-20T04:17:58.283Z,100973.55
2018-08-20T04:20:28.495Z,100981.31
2018-08-20T04:22:58.890Z,100981.73
2018-08-20T04:25:29.335Z,100983.87
2018-08-20T04:27:59.973Z,100975.76
2018-08-20T04:30:30.480Z,100975.27
2018-08-20T04:33:00.847Z,100983.52
2018-08-20T04:35:31.314Z,100979.84
2018-08-20T04:38:01.764Z,100975.36
2018-08-20T04:40:35.058Z,100980.42
2018-08-20T04:43:05.490Z,100984.38
2018-08-20T04:45:35.848Z,100978.03
2018-08-20T04:48:06.491Z,100979.63
2018-08-20T04:50:36.839Z,100973.13
2018-08-20T04:53:07.652Z,100976.31
2018-08-20T04:55:38.139Z,100974.52
2018-08-20T04:58:08.685Z,100981.03
2018-08-20T05:00:39.120Z,100986.80
2018-08-20T05:03:13.778Z,100987.62
2018-08-20T05:05:44.202Z,100994.66
2018-08-20T05:08:14.699Z,100994.66
2018-08-20T05:10:45.177Z,100993.20
2018-08-20T05:13:15.555Z,100985.42
2018-08-20T05:15:46.195Z,100991.05
2018-08-20T05:18:16.529Z,100989.22
2018-08-20T05:20:46.892Z,100985.29
2018-08-20T05:23:17.380Z,100993.13
2018-08-20T05:25:47.692Z,100993.13
2018-08-20T05:28:18.243Z,100987.80
2018-08-20T05:30:48.811Z,100988.09
2018-08-20T05:33:19.308Z,100991.02
2018-08-20T05:35:49.809Z,100996.73
2018-08-20T05:38:20.471Z,100991.39
2018-08-20T05:40:51.016Z,100997.22
2018-08-20T05:43:21.341Z,101004.30
2018-08-20T05:45:51.948Z,101008.27
2018-08-20T05:48:22.506Z,101011.03
2018-08-20T05:50:52.908Z,101006.20
2018-08-20T05:53:23.411Z,101011.08
2018-08-20T05:55:53.791Z,101020.70
2018-08-20T05:58:24.248Z,101019.19
2018-08-20T06:00:54.670Z,101018.70
2018-08-20T06:03:25.166Z,101020.37
2018-08-20T06:05:55.551Z,101021.49
2018-08-20T06:08:26.073Z,101027.77
2018-08-20T06:10:56.537Z,101030.87
2018-08-20T06:13:26.959Z,101025.20
2018-08-20T06:15:57.501Z,101036.87
2018-08-20T06:18:28.085Z,101031.44
2018-08-20T06:20:59.068Z,101032.78
2018-08-20T06:23:29.471Z,101038.70
2018-08-20T06:26:00.107Z,101034.97
2018-08-20T06:28:30.752Z,101039.82
2018-08-20T06:31:01.204Z,101036.36
2018-08-20T06:33:31.890Z,101040.00
2018-08-20T06:36:02.452Z,101042.28
2018-08-20T06:38:32.957Z,101045.42
2018-08-20T06:41:03.627Z,101043.96
2018-08-20T06:43:33.896Z,101047.24
2018-08-20T06:46:04.293Z,101048.42
2018-08-20T06:48:34.723Z,101058.27
2018-08-20T06:51:05.267Z,101053.98
2018-08-20T06:53:35.763Z,101062.34
2018-08-20T06:56:06.146Z,101056.77
2018-08-20T06:58:36.487Z,101058.13
2018-08-20T07:01:07.073Z,101061.13
2018-08-20T07:03:37.540Z,101059.48
2018-08-20T07:06:08.123Z,101055.80
2018-08-20T07:08:38.757Z,101063.50
2018-08-20T07:11:09.300Z,101067.47
2018-08-20T07:13:39.722Z,101062.80
2018-08-20T07:16:10.580Z,101066.69
2018-08-20T07:18:41.360Z,101068.34
2018-08-20T07:21:11.825Z,101068.35
2018-08-20T07:23:42.208Z,101068.85
2018-08-20T07:26:12.825Z,101077.05
2018-08-20T07:28:43.507Z,101080.33
2018-08-20T07:31:14.104Z,101083.61
2018-08-20T07:33:44.733Z,101079.22
2018-08-20T07:36:15.436Z,101084.30
2018-08-20T07:38:46.089Z,101088.11
2018-08-20T07:41:16.614Z,101084.79
2018-08-20T07:43:47.163Z,101092.35
2018-08-20T07:46:17.576Z,101084.64
2018-08-20T07:48:48.112Z,101092.21
2018-08-20T07:51:18.591Z,101088.03
2018-08-20T07:53:49.376Z,101088.31
2018-08-20T07:56:19.867Z,101094.02
2018-08-20T07:58:50.361Z,101094.44
2018-08-20T08:01:20.956Z,101090.31
2018-08-20T08:03:51.321Z,101094.94
2018-08-20T08:06:21.748Z,101091.30
2018-08-20T08:08:52.344Z,101094.89
2018-08-20T08:11:22.805Z,101094.42
2018-08-20T08:13:53.152Z,101094.42
2018-08-20T08:16:23.762Z,101092.14
2018-08-20T08:18:54.208Z,101092.84
2018-08-20T08:21:24.730Z,101106.58
2018-08-20T08:23:55.069Z,101105.66
2018-08-20T08:26:25.578Z,101109.27
2018-08-20T08:28:56.128Z,101108.61
2018-08-20T08:31:26.964Z,101108.58
2018-08-20T08:33:57.728Z,101109.01
2018-08-20T08:36:28.360Z,101107.27
2018-08-20T08:38:58.999Z,101119.70
2018-08-20T08:41:29.697Z,101116.13
2018-08-20T08:44:00.277Z,101113.59
2018-08-20T08:46:30.875Z,101112.45
2018-08-20T08:49:01.536Z,101114.03
2018-08-20T08:51:32.173Z,101115.91
2018-08-20T08:54:02.822Z,101123.27
2018-08-20T08:56:33.832Z,101121.06
2018-08-20T08:59:04.385Z,101121.13
2018-08-20T09:01:34.976Z,101129.05
2018-08-20T09:04:05.652Z,101122.20
2018-08-20T09:06:36.366Z,101131.70
2018-08-20T09:09:08.488Z,101133.03
2018-08-20T09:11:39.066Z,101133.66
2018-08-20T09:14:16.614Z,101131.70
2018-08-20T09:16:47.192Z,101131.73
2018-08-20T09:19:17.755Z,101128.80
2018-08-20T09:21:48.343Z,101125.19
2018-08-20T09:24:18.858Z,101130.54
2018-08-20T09:26:49.519Z,101122.33
2018-08-20T09:29:20.093Z,101125.93
2018-08-20T09:31:50.629Z,101129.31
2018-08-20T09:34:21.016Z,101140.17
2018-08-20T09:36:51.656Z,101137.22
2018-08-20T09:39:22.046Z,101131.68
2018-08-20T09:41:52.630Z,101135.27
2018-08-20T09:44:23.105Z,101140.99
2018-08-20T09:46:53.354Z,101141.42
2018-08-20T09:49:23.755Z,101141.54
2018-08-20T09:51:54.216Z,101135.33
2018-08-20T09:54:25.296Z,101137.73
2018-08-20T09:56:55.893Z,101143.95
2018-08-20T09:59:26.481Z,101144.12
2018-08-20T10:01:57.077Z,101140.91
2018-08-20T10:04:27.525Z,101134.98
2018-08-20T10:06:57.962Z,101137.73
2018-08-20T10:09:28.195Z,101136.78
2018-08-20T10:11:58.737Z,101138.48
2018-08-20T10:14:29.264Z,101129.31
2018-08-20T10:16:59.694Z,101134.81
2018-08-20T10:19:30.418Z,101138.11
2018-08-20T10:22:00.995Z,101133.80
2018-08-20T10:24:31.410Z,101127.39
2018-08-20T10:27:01.877Z,101134.83
2018-08-20T10:29:32.228Z,101132.89
2018-08-20T10:32:02.783Z,101128.70
2018-08-20T10:34:33.110Z,101127.34
2018-08-20T10:37:03.520Z,101125.42
2018-08-20T10:39:33.880Z,101123.95
2018-08-20T10:42:04.383Z,101135.35
2018-08-20T10:44:39.565Z,101134.74
2018-08-20T10:47:09.856Z,101134.56
2018-08-20T10:49:40.400Z,101142.98
2018-08-20T10:52:11.121Z,101138.15
2018-08-20T10:54:41.709Z,101141.32
2018-08-20T10:57:12.213Z,101141.27
2018-08-20T10:59:42.835Z,101141.20
2018-08-20T11:02:13.352Z,101144.14
2018-08-20T11:04:43.952Z,101145.06
2018-08-20T11:07:21.719Z,101144.80
2018-08-20T11:09:52.133Z,101149.31
2018-08-20T11:12:22.632Z,101145.47
2018-08-20T11:14:53.199Z,101149.52
2018-08-20T11:17:23.527Z,101154.48
2018-08-20T11:19:53.819Z,101157.17
2018-08-20T11:22:24.302Z,101159.13
2018-08-20T11:24:54.794Z,101155.13
2018-08-20T11:27:25.368Z,101151.97
2018-08-20T11:29:55.967Z,101157.08
2018-08-20T11:32:26.443Z,101155.45
2018-08-20T11:34:56.823Z,101158.77
2018-08-20T11:37:27.284Z,101155.64
2018-08-20T11:39:57.583Z,101156.97
2018-08-20T11:42:28.117Z,101155.80
2018-08-20T11:44:58.498Z,101157.47
2018-08-20T11:47:29.349Z,101158.89
2018-08-20T11:50:02.077Z,101155.13
2018-08-20T11:52:32.766Z,101161.91
2018-08-20T11:55:03.351Z,101156.52
2018-08-20T11:57:33.832Z,101161.98
2018-08-20T12:00:04.329Z,101166.09
2018-08-20T12:02:34.755Z,101160.91
2018-08-20T12:05:05.591Z,101160.64
2018-08-20T12:07:36.088Z,101164.72
2018-08-20T12:10:07.932Z,101163.64
2018-08-20T12:12:38.887Z,101170.25
2018-08-20T12:15:11.913Z,101176.67
2018-08-20T12:17:43.209Z,101168.67
2018-08-20T12:20:13.714Z,101180.73
2018-08-20T12:22:45.043Z,101172.84
2018-08-20T12:25:16.148Z,101176.06
2018-08-20T12:27:46.541Z,101175.53
2018-08-20T12:30:17.083Z,101176.27
2018-08-20T12:32:47.613Z,101164.66
2018-08-20T12:35:18.096Z,101172.03
2018-08-20T12:37:48.484Z,101174.43
2018-08-20T12:40:19.039Z,101171.82
2018-08-20T12:42:49.327Z,101173.92
2018-08-20T12:45:19.708Z,101177.48
2018-08-20T12:47:50.212Z,101178.41
2018-08-20T12:50:20.579Z,101189.91
2018-08-20T12:52:50.921Z,101191.98
2018-08-20T12:55:21.316Z,101194.28
2018-08-20T12:57:51.917Z,101193.03
2018-08-20T13:00:22.450Z,101197.49
2018-08-20T13:02:52.985Z,101196.28
2018-08-20T13:05:23.479Z,101198.88
2018-08-20T13:07:53.728Z,101204.50
2018-08-20T13:10:24.128Z,101195.00
2018-08-20T13:12:54.603Z,101191.24
2018-08-20T13:15:25.202Z,101195.27
2018-08-20T13:17:55.569Z,101194.49
2018-08-20T13:20:26.093Z,101192.53
2018-08-20T13:22:56.608Z,101198.05
2018-08-20T13:25:27.134Z,101195.20
2018-08-20T13:27:57.687Z,101198.47
2018-08-20T13:30:28.225Z,101194.04
2018-08-20T13:32:58.587Z,101186.88
2018-08-20T13:35:29.052Z,101199.34
2018-08-20T13:37:59.648Z,101196.66
2018-08-20T13:40:30.241Z,101203.70
2018-08-20T13:43:00.927Z,101203.50
2018-08-20T13:45:31.508Z,101203.80
2018-08-20T13:48:01.996Z,101197.23
2018-08-20T13:50:32.364Z,101190.58
2018-08-20T13:53:02.929Z,101192.59
2018-08-20T13:55:33.320Z,101184.72
2018-08-20T13:58:03.924Z,101188.41
2018-08-20T14:00:34.521Z,101169.88
2018-08-20T14:03:05.077Z,101171.58
2018-08-20T14:05:35.467Z,101173.11
2018-08-20T14:08:07.069Z,101174.42
2018-08-20T14:10:37.623Z,101177.15
2018-08-20T14:13:08.436Z,101171.31
2018-08-20T14:15:38.987Z,101174.12
2018-08-20T14:18:09.753Z,101171.28
2018-08-20T14:20:43.027Z,101173.27
2018-08-20T14:23:13.446Z,101172.00
2018-08-20T14:25:43.809Z,101166.27
2018-08-20T14:28:14.286Z,101173.18
2018-08-20T14:30:44.788Z,101161.33
2018-08-20T14:33:15.293Z,101164.00
2018-08-20T14:35:45.654Z,101166.94
2018-08-20T14:38:16.099Z,101174.53
2018-08-20T14:40:46.480Z,101171.06
2018-08-20T14:43:17.107Z,101173.50
2018-08-20T14:45:52.556Z,101172.19
2018-08-20T14:48:23.172Z,101174.34
2018-08-20T14:50:53.666Z,101169.00
2018-08-20T14:53:24.395Z,101164.34
2018-08-20T14:55:54.952Z,101164.43
2018-08-20T14:58:25.555Z,101168.81
2018-08-20T15:00:55.905Z,101166.85
2018-08-20T15:03:26.488Z,101166.13
2018-08-20T15:05:56.969Z,101163.72
2018-08-20T15:08:27.233Z,101170.22
2018-08-20T15:10:57.731Z,101163.27
2018-08-20T15:13:28.168Z,101170.62
2018-08-20T15:15:58.672Z,101172.68
2018-08-20T15:18:29.177Z,101170.46
2018-08-20T15:20:59.644Z,101175.02
2018-08-20T15:23:30.231Z,101167.57
2018-08-20T15:26:00.732Z,101162.92
2018-08-20T15:28:31.087Z,101163.97
2018-08-20T15:31:01.549Z,101171.04
2018-08-20T15:33:32.449Z,101171.34
2018-08-20T15:36:02.872Z,101171.67
2018-08-20T15:38:33.425Z,101172.24
2018-08-20T15:41:04.049Z,101174.16
2018-08-20T15:43:34.767Z,101182.34
2018-08-20T15:46:05.324Z,101173.11
2018-08-20T15:48:35.662Z,101172.60
2018-08-20T15:51:08.609Z,101178.77
2018-08-20T15:53:39.067Z,101176.11
2018-08-20T15:56:09.579Z,101173.69
2018-08-20T15:58:39.945Z,101176.72
2018-08-20T16:01:10.423Z,101179.00
2018-08-20T16:03:40.799Z,101179.58
2018-08-20T16:06:11.174Z,101180.75
2018-08-20T16:08:41.678Z,101179.98
2018-08-20T16:11:12.265Z,101182.56
2018-08-20T16:13:42.986Z,101185.47
2018-08-20T16:16:13.408Z,101189.99
2018-08-20T16:18:43.828Z,101187.89
2018-08-20T16:21:16.529Z,101188.14
2018-08-20T16:23:46.831Z,101179.56
2018-08-20T16:26:17.398Z,101180.59
2018-08-20T16:28:47.767Z,101182.95
2018-08-20T16:31:18.359Z,101184.03
2018-08-20T16:33:48.904Z,101177.95
2018-08-20T16:36:19.468Z,101176.00
2018-08-20T16:38:49.952Z,101173.01
2018-08-20T16:41:20.294Z,101171.88
2018-08-20T16:43:50.755Z,101170.36
2018-08-20T16:46:22.124Z,101167.77
2018-08-20T16:48:52.648Z,101162.47
2018-08-20T16:51:23.073Z,101170.11
2018-08-20T16:53:53.684Z,101170.61
2018-08-20T16:56:24.335Z,101168.21
2018-08-20T16:58:54.844Z,101174.63
2018-08-20T17:01:25.363Z,101171.38
2018-08-20T17:03:55.944Z,101175.20
2018-08-20T17:06:35.836Z,101172.10
2018-08-20T17:09:06.590Z,101167.15
2018-08-20T17:11:37.023Z,101164.95
2018-08-20T17:14:07.537Z,101169.84
2018-08-20T17:16:37.853Z,101167.97
2018-08-20T17:19:08.433Z,101176.36
2018-08-20T17:21:39.036Z,101181.50
2018-08-20T17:24:09.621Z,101179.20
2018-08-20T17:26:40.264Z,101187.50
2018-08-20T17:29:12.252Z,101186.33
2018-08-20T17:31:42.610Z,101194.83
2018-08-20T17:34:13.064Z,101192.15
2018-08-20T17:36:43.541Z,101198.23
2018-08-20T17:39:13.951Z,101198.41
2018-08-20T17:41:44.665Z,101201.22
2018-08-20T17:44:15.128Z,101196.11
2018-08-20T17:46:45.721Z,101197.50
2018-08-20T17:49:20.354Z,101196.44
2018-08-20T17:51:51.380Z,101197.25
2018-08-20T17:54:21.776Z,101204.06
2018-08-20T17:56:52.266Z,101203.58
2018-08-20T17:59:24.818Z,101202.17
2018-08-20T18:01:55.394Z,101195.87
2018-08-20T18:04:25.776Z,101194.33
2018-08-20T18:06:57.161Z,101189.61
2018-08-20T18:09:27.757Z,101192.19
2018-08-20T18:11:58.218Z,101199.30
2018-08-20T18:14:28.592Z,101198.77
2018-08-20T18:16:58.992Z,101195.08
2018-08-20T18:19:29.559Z,101201.18
2018-08-20T18:22:00.000Z,101200.44
2018-08-20T18:24:30.458Z,101205.44
2018-08-20T18:27:01.003Z,101215.21
2018-08-20T18:29:31.295Z,101224.23
2018-08-20T18:32:03.480Z,101225.16
2018-08-20T18:34:33.978Z,101231.09
2018-08-20T18:37:05.159Z,101231.00
2018-08-20T18:39:35.573Z,101230.28
2018-08-20T18:42:15.218Z,101239.86
2018-08-20T18:44:46.716Z,101241.81
2018-08-20T18:47:18.655Z,101249.70
2018-08-20T18:49:54.564Z,101256.25
2018-08-20T18:52:26.756Z,101258.20
2018-08-20T18:54:58.372Z,101254.30
2018-08-20T18:57:36.744Z,101254.06
2018-08-20T19:00:15.338Z,101260.09
2018-08-20T19:02:51.300Z,101268.86
2018-08-20T19:05:22.111Z,101276.90
2018-08-20T19:07:52.719Z,101280.17
2018-08-20T19:10:30.320Z,101278.67
2018-08-20T19:13:00.772Z,101282.53
2018-08-20T19:15:39.060Z,101282.53
2018-08-20T19:18:13.336Z,101284.68
2018-08-20T19:20:44.467Z,101280.40
2018-08-20T19:23:14.849Z,101280.53
2018-08-20T19:25:45.299Z,101276.38
2018-08-20T19:28:20.880Z,101278.42
2018-08-20T19:30:52.356Z,101283.53
2018-08-20T19:33:25.123Z,101279.98
2018-08-20T19:35:56.097Z,101277.97
2018-08-20T19:38:26.644Z,101282.16
2018-08-20T19:41:04.743Z,101277.34
2018-08-20T19:43:40.808Z,101280.41
2018-08-20T19:46:11.456Z,101271.31
2018-08-20T19:48:44.228Z,101271.58
2018-08-20T19:51:15.160Z,101274.67
2018-08-20T19:53:46.760Z,101275.80
2018-08-20T19:56:17.127Z,101280.38
2018-08-20T19:58:47.605Z,101281.93
2018-08-20T20:01:19.005Z,101288.88
2018-08-20T20:03:50.558Z,101284.23
2018-08-20T20:06:21.175Z,101278.80
2018-08-20T20:08:51.636Z,101286.25
2018-08-20T20:11:26.952Z,101291.75
2018-08-20T20:14:00.645Z,101289.27
2018-08-20T20:16:48.346Z,101298.94
2018-08-20T20:19:19.347Z,101299.44
2018-08-20T20:21:49.962Z,101299.44
2018-08-20T20:24:20.526Z,101302.09
2018-08-20T20:26:50.983Z,101300.75
2018-08-20T20:29:21.541Z,101297.78
2018-08-20T20:31:52.256Z,101301.97
2018-08-20T20:34:22.539Z,101306.98
2018-08-20T20:36:52.948Z,101304.34
2018-08-20T20:39:23.556Z,101304.97
2018-08-20T20:41:54.062Z,101309.59
2018-08-20T20:44:24.580Z,101310.34
2018-08-20T20:46:55.168Z,101310.45
2018-08-20T20:49:25.732Z,101317.07
2018-08-20T20:51:56.192Z,101313.68
2018-08-20T20:54:26.602Z,101315.16
2018-08-20T20:56:57.199Z,101314.30
2018-08-20T20:59:27.692Z,101318.73
2018-08-20T21:01:58.163Z,101318.88
2018-08-20T21:04:28.856Z,101323.69
2018-08-20T21:06:59.431Z,101319.16
2018-08-20T21:09:33.928Z,101327.54
2018-08-20T21:12:04.600Z,101330.98
2018-08-20T21:14:35.180Z,101328.68
2018-08-20T21:17:05.735Z,101326.89
2018-08-20T21:19:36.657Z,101327.07
2018-08-20T21:22:08.620Z,101334.15
2018-08-20T21:24:40.509Z,101336.20
2018-08-20T21:27:19.320Z,101335.98
2018-08-20T21:29:49.994Z,101331.91
2018-08-20T21:32:20.501Z,101338.25
2018-08-20T21:34:50.748Z,101339.93
2018-08-20T21:37:21.175Z,101344.59
2018-08-20T21:39:52.013Z,101345.53
2018-08-20T21:42:33.973Z,101344.72
2018-08-20T21:45:04.640Z,101347.30
2018-08-20T21:47:35.053Z,101346.48
2018-08-20T21:50:06.056Z,101344.91
2018-08-20T21:52:36.296Z,101340.72
2018-08-20T21:55:08.148Z,101340.48
2018-08-20T21:57:44.025Z,101336.31
2018-08-20T22:00:17.132Z,101349.86
2018-08-20T22:02:52.779Z,101353.09
2018-08-20T22:05:23.192Z,101354.91
2018-08-20T22:07:56.213Z,101357.44
2018-08-20T22:10:28.577Z,101359.57
2018-08-20T22:12:59.132Z,101364.38
2018-08-20T22:15:29.503Z,101361.00
2018-08-20T22:17:59.959Z,101367.73
2018-08-20T22:20:30.522Z,101364.02
2018-08-20T22:23:11.919Z,101374.80
2018-08-20T22:25:31.804Z,101369.53
2018-08-20T22:28:02.512Z,101368.22
2018-08-20T22:30:35.940Z,101370.36
2018-08-20T22:33:06.563Z,101366.41
2018-08-20T22:35:37.068Z,101367.75
2018-08-20T22:38:07.579Z,101370.97
2018-08-20T22:40:37.952Z,101372.17
2018-08-20T22:43:08.644Z,101371.56
2018-08-20T22:45:39.857Z,101374.19
2018-08-20T22:48:10.215Z,101380.53
2018-08-20T22:50:40.672Z,101379.00
2018-08-20T22:53:11.685Z,101377.93
2018-08-20T22:56:00.536Z,101380.90
2018-08-20T22:58:30.993Z,101381.85
2018-08-20T23:01:01.448Z,101388.67
2018-08-20T23:03:31.771Z,101381.02
2018-08-20T23:06:02.168Z,101381.59
2018-08-20T23:08:33.990Z,101389.41
2018-08-20T23:11:05.013Z,101392.75
2018-08-20T23:13:35.668Z,101389.63
2018-08-20T23:16:06.261Z,101388.68
2018-08-20T23:18:37.268Z,101391.19
2018-08-20T23:21:07.858Z,101390.11
2018-08-20T23:23:38.516Z,101390.48
2018-08-20T23:26:10.413Z,101394.61
2018-08-20T23:28:41.867Z,101394.48
2018-08-20T23:31:12.721Z,101394.23
2018-08-20T23:33:43.259Z,101393.77
2018-08-20T23:36:13.740Z,101398.78
2018-08-20T23:38:44.325Z,101403.86
2018-08-20T23:41:14.647Z,101402.63
2018-08-20T23:43:49.935Z,101407.22
2018-08-20T23:46:41.608Z,101411.62
2018-08-20T23:49:12.029Z,101403.36
2018-08-20T23:51:42.620Z,101403.27
2018-08-20T23:54:14.145Z,101397.97
2018-08-20T23:56:44.628Z,101404.16
2018-08-20T23:59:14.975Z,101404.88
